sensor_id;sensor_type;location;lat;lon;timestamp;P1;durP1;ratioP1;P2;durP2;ratioP2
3601;SDS011;1815;50.950;6.920;2023-08-24T00:01:16;5.03;;;3.57;;
3601;SDS011;1815;50.950;6.920;2023-08-24T00:03:45;6.30;;;3.17;;
3601;SDS011;1815;50.950;6.920;2023-08-24T00:06:11;6.13;;;3.03;;
3601;SDS011;1815;50.950;6.920;2023-08-24T00:08:37;4.20;;;3.33;;
3601;SDS011;1815;50.950;6.920;2023-08-24T00:11:03;5.47;;;2.87;;
3601;SDS011;1815;50.950;6.920;2023-08-24T00:13:29;4.40;;;3.27;;
3601;SDS011;1815;50.950;6.920;2023-08-24T00:15:55;5.33;;;2.70;;
3601;SDS011;1815;50.950;6.920;2023-08-24T00:18:21;3.50;;;2.53;;
3601;SDS011;1815;50.950;6.920;2023-08-24T00:20:47;5.37;;;2.40;;
3601;SDS011;1815;50.950;6.920;2023-08-24T00:23:14;4.13;;;2.87;;
3601;SDS011;1815;50.950;6.920;2023-08-24T00:25:40;5.63;;;2.40;;
3601;SDS011;1815;50.950;6.920;2023-08-24T00:28:08;4.47;;;3.33;;
3601;SDS011;1815;50.950;6.920;2023-08-24T00:30:36;4.60;;;2.50;;
3601;SDS011;1815;50.950;6.920;2023-08-24T00:33:02;3.70;;;2.67;;
3601;SDS011;1815;50.950;6.920;2023-08-24T00:35:28;3.40;;;2.30;;
3601;SDS011;1815;50.950;6.920;2023-08-24T00:37:54;4.30;;;2.87;;
3601;SDS011;1815;50.950;6.920;2023-08-24T00:40:20;3.60;;;2.70;;
3601;SDS011;1815;50.950;6.920;2023-08-24T00:42:46;5.43;;;2.50;;
3601;SDS011;1815;50.950;6.920;2023-08-24T00:45:12;4.17;;;1.90;;
3601;SDS011;1815;50.950;6.920;2023-08-24T00:47:40;4.17;;;2.27;;
3601;SDS011;1815;50.950;6.920;2023-08-24T00:50:08;5.30;;;2.40;;
3601;SDS011;1815;50.950;6.920;2023-08-24T00:52:36;3.10;;;2.10;;
3601;SDS011;1815;50.950;6.920;2023-08-24T00:55:04;4.43;;;2.37;;
3601;SDS011;1815;50.950;6.920;2023-08-24T00:57:31;4.70;;;2.83;;
3601;SDS011;1815;50.950;6.920;2023-08-24T00:59:59;5.17;;;2.57;;
3601;SDS011;1815;50.950;6.920;2023-08-24T01:02:30;3.80;;;2.50;;
3601;SDS011;1815;50.950;6.920;2023-08-24T01:04:56;4.00;;;2.40;;
3601;SDS011;1815;50.950;6.920;2023-08-24T01:07:22;3.80;;;1.90;;
3601;SDS011;1815;50.950;6.920;2023-08-24T01:09:47;3.50;;;2.47;;
3601;SDS011;1815;50.950;6.920;2023-08-24T01:12:28;3.30;;;1.87;;
3601;SDS011;1815;50.950;6.920;2023-08-24T01:17:35;4.50;;;2.77;;
3601;SDS011;1815;50.950;6.920;2023-08-24T01:20:03;3.30;;;1.90;;
3601;SDS011;1815;50.950;6.920;2023-08-24T01:22:37;6.80;;;2.37;;
3601;SDS011;1815;50.950;6.920;2023-08-24T01:27:37;4.37;;;2.63;;
3601;SDS011;1815;50.950;6.920;2023-08-24T01:30:04;4.30;;;2.00;;
3601;SDS011;1815;50.950;6.920;2023-08-24T01:32:31;3.40;;;2.10;;
3601;SDS011;1815;50.950;6.920;2023-08-24T01:35:02;2.73;;;2.00;;
3601;SDS011;1815;50.950;6.920;2023-08-24T01:37:34;3.97;;;3.07;;
3601;SDS011;1815;50.950;6.920;2023-08-24T01:40:04;4.20;;;2.43;;
3601;SDS011;1815;50.950;6.920;2023-08-24T01:42:45;9.20;;;2.40;;
3601;SDS011;1815;50.950;6.920;2023-08-24T01:45:17;4.40;;;2.50;;
3601;SDS011;1815;50.950;6.920;2023-08-24T01:47:45;4.57;;;2.40;;
3601;SDS011;1815;50.950;6.920;2023-08-24T01:50:13;9.50;;;3.63;;
3601;SDS011;1815;50.950;6.920;2023-08-24T01:52:39;3.87;;;2.20;;
3601;SDS011;1815;50.950;6.920;2023-08-24T01:55:05;3.63;;;2.00;;
3601;SDS011;1815;50.950;6.920;2023-08-24T01:57:31;4.53;;;2.40;;
3601;SDS011;1815;50.950;6.920;2023-08-24T01:59:57;4.10;;;2.60;;
3601;SDS011;1815;50.950;6.920;2023-08-24T02:02:23;2.83;;;1.90;;
3601;SDS011;1815;50.950;6.920;2023-08-24T02:04:50;3.70;;;2.10;;
3601;SDS011;1815;50.950;6.920;2023-08-24T02:07:16;6.03;;;2.10;;
3601;SDS011;1815;50.950;6.920;2023-08-24T02:09:42;6.00;;;2.80;;
3601;SDS011;1815;50.950;6.920;2023-08-24T02:12:07;4.60;;;2.23;;
3601;SDS011;1815;50.950;6.920;2023-08-24T02:14:33;6.93;;;3.27;;
3601;SDS011;1815;50.950;6.920;2023-08-24T02:16:59;4.00;;;2.47;;
3601;SDS011;1815;50.950;6.920;2023-08-24T02:19:24;5.43;;;2.90;;
3601;SDS011;1815;50.950;6.920;2023-08-24T02:21:50;4.73;;;2.30;;
3601;SDS011;1815;50.950;6.920;2023-08-24T02:24:16;3.50;;;2.30;;
3601;SDS011;1815;50.950;6.920;2023-08-24T02:26:41;3.63;;;2.27;;
3601;SDS011;1815;50.950;6.920;2023-08-24T02:29:08;4.93;;;2.50;;
3601;SDS011;1815;50.950;6.920;2023-08-24T02:31:34;4.30;;;2.37;;
3601;SDS011;1815;50.950;6.920;2023-08-24T02:33:59;2.27;;;1.53;;
3601;SDS011;1815;50.950;6.920;2023-08-24T02:36:27;3.60;;;2.40;;
3601;SDS011;1815;50.950;6.920;2023-08-24T02:38:53;7.00;;;4.33;;
3601;SDS011;1815;50.950;6.920;2023-08-24T02:41:19;3.97;;;2.13;;
3601;SDS011;1815;50.950;6.920;2023-08-24T02:43:45;7.03;;;2.27;;
3601;SDS011;1815;50.950;6.920;2023-08-24T02:46:11;4.43;;;2.70;;
3601;SDS011;1815;50.950;6.920;2023-08-24T02:48:36;4.80;;;2.20;;
3601;SDS011;1815;50.950;6.920;2023-08-24T02:51:03;4.87;;;2.40;;
3601;SDS011;1815;50.950;6.920;2023-08-24T02:53:29;4.90;;;2.40;;
3601;SDS011;1815;50.950;6.920;2023-08-24T02:55:55;3.40;;;2.07;;
3601;SDS011;1815;50.950;6.920;2023-08-24T02:58:22;3.00;;;1.80;;
3601;SDS011;1815;50.950;6.920;2023-08-24T03:00:48;4.40;;;2.40;;
3601;SDS011;1815;50.950;6.920;2023-08-24T03:03:14;2.23;;;2.03;;
3601;SDS011;1815;50.950;6.920;2023-08-24T03:05:40;3.70;;;2.43;;
3601;SDS011;1815;50.950;6.920;2023-08-24T03:08:06;5.07;;;2.17;;
3601;SDS011;1815;50.950;6.920;2023-08-24T03:10:35;4.10;;;2.10;;
3601;SDS011;1815;50.950;6.920;2023-08-24T03:13:01;2.60;;;1.83;;
3601;SDS011;1815;50.950;6.920;2023-08-24T03:15:28;3.77;;;2.07;;
3601;SDS011;1815;50.950;6.920;2023-08-24T03:17:53;3.20;;;2.03;;
3601;SDS011;1815;50.950;6.920;2023-08-24T03:20:19;3.20;;;1.97;;
3601;SDS011;1815;50.950;6.920;2023-08-24T03:22:45;4.37;;;2.47;;
3601;SDS011;1815;50.950;6.920;2023-08-24T03:25:10;3.90;;;2.37;;
3601;SDS011;1815;50.950;6.920;2023-08-24T03:27:38;3.13;;;2.00;;
3601;SDS011;1815;50.950;6.920;2023-08-24T03:30:04;4.13;;;2.27;;
3601;SDS011;1815;50.950;6.920;2023-08-24T03:32:31;3.20;;;2.40;;
3601;SDS011;1815;50.950;6.920;2023-08-24T03:35:00;3.07;;;2.40;;
3601;SDS011;1815;50.950;6.920;2023-08-24T03:37:28;3.83;;;2.47;;
3601;SDS011;1815;50.950;6.920;2023-08-24T03:39:54;3.67;;;2.50;;
3601;SDS011;1815;50.950;6.920;2023-08-24T03:42:19;2.87;;;2.00;;
3601;SDS011;1815;50.950;6.920;2023-08-24T03:44:45;6.10;;;1.40;;
3601;SDS011;1815;50.950;6.920;2023-08-24T03:47:10;1.90;;;1.67;;
3601;SDS011;1815;50.950;6.920;2023-08-24T03:49:36;4.17;;;2.60;;
3601;SDS011;1815;50.950;6.920;2023-08-24T03:52:03;2.57;;;1.90;;
3601;SDS011;1815;50.950;6.920;2023-08-24T03:54:29;2.70;;;2.40;;
3601;SDS011;1815;50.950;6.920;2023-08-24T03:56:54;3.10;;;2.30;;
3601;SDS011;1815;50.950;6.920;2023-08-24T03:59:20;3.20;;;2.43;;
3601;SDS011;1815;50.950;6.920;2023-08-24T04:01:46;3.30;;;2.03;;
3601;SDS011;1815;50.950;6.920;2023-08-24T04:04:11;4.30;;;2.33;;
3601;SDS011;1815;50.950;6.920;2023-08-24T04:06:37;3.10;;;2.10;;
3601;SDS011;1815;50.950;6.920;2023-08-24T04:09:04;3.40;;;2.40;;
3601;SDS011;1815;50.950;6.920;2023-08-24T04:11:31;2.50;;;1.77;;
3601;SDS011;1815;50.950;6.920;2023-08-24T04:13:56;3.80;;;2.47;;
3601;SDS011;1815;50.950;6.920;2023-08-24T04:16:22;3.80;;;2.30;;
3601;SDS011;1815;50.950;6.920;2023-08-24T04:18:48;5.33;;;1.87;;
3601;SDS011;1815;50.950;6.920;2023-08-24T04:21:14;5.63;;;2.50;;
3601;SDS011;1815;50.950;6.920;2023-08-24T04:23:39;4.30;;;2.10;;
3601;SDS011;1815;50.950;6.920;2023-08-24T04:26:10;4.37;;;2.73;;
3601;SDS011;1815;50.950;6.920;2023-08-24T04:28:36;7.60;;;2.90;;
3601;SDS011;1815;50.950;6.920;2023-08-24T04:31:02;5.73;;;2.20;;
3601;SDS011;1815;50.950;6.920;2023-08-24T04:33:28;2.93;;;2.20;;
3601;SDS011;1815;50.950;6.920;2023-08-24T04:35:54;7.20;;;2.60;;
3601;SDS011;1815;50.950;6.920;2023-08-24T04:38:20;8.10;;;2.73;;
3601;SDS011;1815;50.950;6.920;2023-08-24T04:40:46;4.57;;;2.33;;
3601;SDS011;1815;50.950;6.920;2023-08-24T04:43:14;4.70;;;2.30;;
3601;SDS011;1815;50.950;6.920;2023-08-24T04:45:39;4.77;;;2.80;;
3601;SDS011;1815;50.950;6.920;2023-08-24T04:48:05;5.63;;;3.07;;
3601;SDS011;1815;50.950;6.920;2023-08-24T04:50:31;4.57;;;2.93;;
3601;SDS011;1815;50.950;6.920;2023-08-24T04:52:57;4.50;;;3.10;;
3601;SDS011;1815;50.950;6.920;2023-08-24T04:55:22;6.47;;;3.40;;
3601;SDS011;1815;50.950;6.920;2023-08-24T04:57:48;7.93;;;3.50;;
3601;SDS011;1815;50.950;6.920;2023-08-24T05:00:14;4.07;;;3.10;;
3601;SDS011;1815;50.950;6.920;2023-08-24T05:02:45;9.23;;;3.90;;
3601;SDS011;1815;50.950;6.920;2023-08-24T05:05:11;7.80;;;4.07;;
3601;SDS011;1815;50.950;6.920;2023-08-24T05:07:39;2.83;;;2.50;;
3601;SDS011;1815;50.950;6.920;2023-08-24T05:10:06;4.03;;;3.30;;
3601;SDS011;1815;50.950;6.920;2023-08-24T05:12:32;6.40;;;3.20;;
3601;SDS011;1815;50.950;6.920;2023-08-24T05:15:01;5.37;;;2.73;;
3601;SDS011;1815;50.950;6.920;2023-08-24T05:17:27;5.03;;;4.10;;
3601;SDS011;1815;50.950;6.920;2023-08-24T05:19:54;6.30;;;4.00;;
3601;SDS011;1815;50.950;6.920;2023-08-24T05:22:19;4.57;;;3.13;;
3601;SDS011;1815;50.950;6.920;2023-08-24T05:24:46;7.00;;;2.73;;
3601;SDS011;1815;50.950;6.920;2023-08-24T05:27:11;5.43;;;3.90;;
3601;SDS011;1815;50.950;6.920;2023-08-24T05:29:37;6.60;;;3.40;;
3601;SDS011;1815;50.950;6.920;2023-08-24T05:32:03;5.30;;;3.13;;
3601;SDS011;1815;50.950;6.920;2023-08-24T05:34:29;7.10;;;4.00;;
3601;SDS011;1815;50.950;6.920;2023-08-24T05:36:54;6.93;;;3.73;;
3601;SDS011;1815;50.950;6.920;2023-08-24T05:39:21;5.77;;;3.77;;
3601;SDS011;1815;50.950;6.920;2023-08-24T05:41:50;6.20;;;3.83;;
3601;SDS011;1815;50.950;6.920;2023-08-24T05:44:16;7.70;;;3.47;;
3601;SDS011;1815;50.950;6.920;2023-08-24T05:46:42;3.80;;;2.97;;
3601;SDS011;1815;50.950;6.920;2023-08-24T05:49:08;4.27;;;3.17;;
3601;SDS011;1815;50.950;6.920;2023-08-24T05:51:34;4.73;;;2.90;;
3601;SDS011;1815;50.950;6.920;2023-08-24T05:54:00;6.70;;;3.70;;
3601;SDS011;1815;50.950;6.920;2023-08-24T05:56:25;7.80;;;3.63;;
3601;SDS011;1815;50.950;6.920;2023-08-24T05:58:51;4.90;;;3.60;;
3601;SDS011;1815;50.950;6.920;2023-08-24T06:01:17;5.03;;;3.30;;
3601;SDS011;1815;50.950;6.920;2023-08-24T06:03:42;4.80;;;3.60;;
3601;SDS011;1815;50.950;6.920;2023-08-24T06:06:08;4.00;;;3.57;;
3601;SDS011;1815;50.950;6.920;2023-08-24T06:08:35;5.60;;;3.37;;
3601;SDS011;1815;50.950;6.920;2023-08-24T06:11:00;4.47;;;3.87;;
3601;SDS011;1815;50.950;6.920;2023-08-24T06:13:26;10.03;;;4.03;;
3601;SDS011;1815;50.950;6.920;2023-08-24T06:15:53;4.53;;;3.00;;
3601;SDS011;1815;50.950;6.920;2023-08-24T06:18:22;4.70;;;3.67;;
3601;SDS011;1815;50.950;6.920;2023-08-24T06:20:48;6.27;;;3.53;;
3601;SDS011;1815;50.950;6.920;2023-08-24T06:23:17;4.37;;;3.10;;
3601;SDS011;1815;50.950;6.920;2023-08-24T06:25:44;6.50;;;3.63;;
3601;SDS011;1815;50.950;6.920;2023-08-24T06:28:10;10.93;;;4.00;;
3601;SDS011;1815;50.950;6.920;2023-08-24T06:30:40;5.23;;;3.47;;
3601;SDS011;1815;50.950;6.920;2023-08-24T06:33:08;7.53;;;4.20;;
3601;SDS011;1815;50.950;6.920;2023-08-24T06:35:36;9.67;;;4.30;;
3601;SDS011;1815;50.950;6.920;2023-08-24T06:38:02;9.70;;;3.43;;
3601;SDS011;1815;50.950;6.920;2023-08-24T06:40:28;6.33;;;3.37;;
3601;SDS011;1815;50.950;6.920;2023-08-24T06:42:54;9.17;;;3.53;;
3601;SDS011;1815;50.950;6.920;2023-08-24T06:45:20;5.43;;;3.13;;
3601;SDS011;1815;50.950;6.920;2023-08-24T06:47:46;3.80;;;3.20;;
3601;SDS011;1815;50.950;6.920;2023-08-24T06:50:17;5.43;;;2.43;;
3601;SDS011;1815;50.950;6.920;2023-08-24T06:52:44;7.73;;;2.80;;
3601;SDS011;1815;50.950;6.920;2023-08-24T06:55:10;3.70;;;2.60;;
3601;SDS011;1815;50.950;6.920;2023-08-24T06:57:37;6.67;;;2.87;;
3601;SDS011;1815;50.950;6.920;2023-08-24T07:00:03;13.37;;;3.50;;
3601;SDS011;1815;50.950;6.920;2023-08-24T07:02:36;3.90;;;2.23;;
3601;SDS011;1815;50.950;6.920;2023-08-24T07:05:02;3.63;;;2.07;;
3601;SDS011;1815;50.950;6.920;2023-08-24T07:07:30;3.37;;;2.20;;
3601;SDS011;1815;50.950;6.920;2023-08-24T07:09:55;5.30;;;2.33;;
3601;SDS011;1815;50.950;6.920;2023-08-24T07:12:21;3.23;;;1.70;;
3601;SDS011;1815;50.950;6.920;2023-08-24T07:14:47;6.20;;;2.80;;
3601;SDS011;1815;50.950;6.920;2023-08-24T07:17:12;4.60;;;2.00;;
3601;SDS011;1815;50.950;6.920;2023-08-24T07:19:38;4.10;;;2.30;;
3601;SDS011;1815;50.950;6.920;2023-08-24T07:22:04;4.10;;;1.80;;
3601;SDS011;1815;50.950;6.920;2023-08-24T07:24:29;3.90;;;1.90;;
3601;SDS011;1815;50.950;6.920;2023-08-24T07:26:55;2.57;;;1.60;;
3601;SDS011;1815;50.950;6.920;2023-08-24T07:29:21;2.37;;;1.40;;
3601;SDS011;1815;50.950;6.920;2023-08-24T07:31:47;2.40;;;1.40;;
3601;SDS011;1815;50.950;6.920;2023-08-24T07:34:13;2.50;;;1.57;;
3601;SDS011;1815;50.950;6.920;2023-08-24T07:36:40;5.70;;;1.70;;
3601;SDS011;1815;50.950;6.920;2023-08-24T07:39:07;3.17;;;1.43;;
3601;SDS011;1815;50.950;6.920;2023-08-24T07:41:33;2.37;;;1.53;;
3601;SDS011;1815;50.950;6.920;2023-08-24T07:43:59;2.70;;;1.20;;
3601;SDS011;1815;50.950;6.920;2023-08-24T07:46:24;3.40;;;1.70;;
3601;SDS011;1815;50.950;6.920;2023-08-24T07:48:50;3.13;;;2.00;;
3601;SDS011;1815;50.950;6.920;2023-08-24T07:51:16;2.70;;;1.10;;
3601;SDS011;1815;50.950;6.920;2023-08-24T07:53:41;3.60;;;1.10;;
3601;SDS011;1815;50.950;6.920;2023-08-24T07:56:07;3.37;;;1.30;;
3601;SDS011;1815;50.950;6.920;2023-08-24T07:58:33;4.77;;;1.50;;
3601;SDS011;1815;50.950;6.920;2023-08-24T08:00:59;2.70;;;1.10;;
3601;SDS011;1815;50.950;6.920;2023-08-24T08:03:24;2.87;;;1.43;;
3601;SDS011;1815;50.950;6.920;2023-08-24T08:05:50;4.90;;;1.83;;
3601;SDS011;1815;50.950;6.920;2023-08-24T08:08:16;3.10;;;1.30;;
3601;SDS011;1815;50.950;6.920;2023-08-24T08:10:42;3.40;;;2.03;;
3601;SDS011;1815;50.950;6.920;2023-08-24T08:13:08;2.30;;;1.30;;
3601;SDS011;1815;50.950;6.920;2023-08-24T08:15:37;2.87;;;1.67;;
3601;SDS011;1815;50.950;6.920;2023-08-24T08:18:03;2.90;;;1.20;;
3601;SDS011;1815;50.950;6.920;2023-08-24T08:20:30;2.47;;;1.50;;
3601;SDS011;1815;50.950;6.920;2023-08-24T08:22:56;2.83;;;1.20;;
3601;SDS011;1815;50.950;6.920;2023-08-24T08:25:22;2.63;;;1.50;;
3601;SDS011;1815;50.950;6.920;2023-08-24T08:27:48;2.70;;;1.50;;
3601;SDS011;1815;50.950;6.920;2023-08-24T08:30:14;4.80;;;1.87;;
3601;SDS011;1815;50.950;6.920;2023-08-24T08:32:45;2.73;;;1.40;;
3601;SDS011;1815;50.950;6.920;2023-08-24T08:35:10;3.00;;;1.40;;
3601;SDS011;1815;50.950;6.920;2023-08-24T08:37:36;2.93;;;1.20;;
3601;SDS011;1815;50.950;6.920;2023-08-24T08:40:08;2.47;;;1.20;;
3601;SDS011;1815;50.950;6.920;2023-08-24T08:42:35;2.23;;;1.40;;
3601;SDS011;1815;50.950;6.920;2023-08-24T08:45:02;2.33;;;1.40;;
3601;SDS011;1815;50.950;6.920;2023-08-24T08:47:32;6.03;;;1.33;;
3601;SDS011;1815;50.950;6.920;2023-08-24T08:49:58;3.50;;;0.90;;
3601;SDS011;1815;50.950;6.920;2023-08-24T08:52:27;2.10;;;1.13;;
3601;SDS011;1815;50.950;6.920;2023-08-24T08:54:53;4.27;;;1.50;;
3601;SDS011;1815;50.950;6.920;2023-08-24T08:57:19;3.90;;;1.13;;
3601;SDS011;1815;50.950;6.920;2023-08-24T08:59:47;2.53;;;1.30;;
3601;SDS011;1815;50.950;6.920;2023-08-24T09:02:16;2.90;;;1.20;;
3601;SDS011;1815;50.950;6.920;2023-08-24T09:04:48;2.13;;;1.30;;
3601;SDS011;1815;50.950;6.920;2023-08-24T09:07:16;2.70;;;1.10;;
3601;SDS011;1815;50.950;6.920;2023-08-24T09:09:42;2.80;;;1.20;;
3601;SDS011;1815;50.950;6.920;2023-08-24T09:12:08;2.43;;;1.10;;
3601;SDS011;1815;50.950;6.920;2023-08-24T09:14:34;5.10;;;1.37;;
3601;SDS011;1815;50.950;6.920;2023-08-24T09:17:00;2.13;;;1.03;;
3601;SDS011;1815;50.950;6.920;2023-08-24T09:19:28;2.43;;;1.20;;
3601;SDS011;1815;50.950;6.920;2023-08-24T09:21:58;2.20;;;1.23;;
3601;SDS011;1815;50.950;6.920;2023-08-24T09:24:34;3.00;;;1.40;;
3601;SDS011;1815;50.950;6.920;2023-08-24T09:27:14;2.90;;;1.30;;
3601;SDS011;1815;50.950;6.920;2023-08-24T09:29:51;2.90;;;1.27;;
3601;SDS011;1815;50.950;6.920;2023-08-24T09:32:21;2.40;;;1.33;;
3601;SDS011;1815;50.950;6.920;2023-08-24T09:34:48;2.10;;;1.10;;
3601;SDS011;1815;50.950;6.920;2023-08-24T09:37:14;2.83;;;1.10;;
3601;SDS011;1815;50.950;6.920;2023-08-24T09:39:41;2.90;;;1.30;;
3601;SDS011;1815;50.950;6.920;2023-08-24T09:42:07;2.70;;;1.10;;
3601;SDS011;1815;50.950;6.920;2023-08-24T09:44:33;3.70;;;1.20;;
3601;SDS011;1815;50.950;6.920;2023-08-24T09:46:59;2.30;;;1.30;;
3601;SDS011;1815;50.950;6.920;2023-08-24T09:49:24;2.63;;;1.20;;
3601;SDS011;1815;50.950;6.920;2023-08-24T09:51:55;2.07;;;1.10;;
3601;SDS011;1815;50.950;6.920;2023-08-24T09:54:24;3.07;;;1.63;;
3601;SDS011;1815;50.950;6.920;2023-08-24T09:56:52;3.30;;;1.17;;
3601;SDS011;1815;50.950;6.920;2023-08-24T09:59:21;4.20;;;2.63;;
3601;SDS011;1815;50.950;6.920;2023-08-24T10:01:50;2.13;;;1.17;;
3601;SDS011;1815;50.950;6.920;2023-08-24T10:04:25;4.60;;;1.30;;
3601;SDS011;1815;50.950;6.920;2023-08-24T10:07:08;1.97;;;1.20;;
3601;SDS011;1815;50.950;6.920;2023-08-24T10:12:23;2.00;;;1.10;;
3601;SDS011;1815;50.950;6.920;2023-08-24T10:15:09;4.10;;;1.50;;
3601;SDS011;1815;50.950;6.920;2023-08-24T10:17:38;3.43;;;1.40;;
3601;SDS011;1815;50.950;6.920;2023-08-24T10:20:05;2.07;;;1.40;;
3601;SDS011;1815;50.950;6.920;2023-08-24T10:22:34;2.10;;;1.30;;
3601;SDS011;1815;50.950;6.920;2023-08-24T10:25:01;2.57;;;1.30;;
3601;SDS011;1815;50.950;6.920;2023-08-24T10:27:28;2.50;;;1.30;;
3601;SDS011;1815;50.950;6.920;2023-08-24T10:29:55;2.63;;;1.20;;
3601;SDS011;1815;50.950;6.920;2023-08-24T10:32:21;2.90;;;1.53;;
3601;SDS011;1815;50.950;6.920;2023-08-24T10:34:48;4.07;;;1.50;;
3601;SDS011;1815;50.950;6.920;2023-08-24T10:37:14;4.50;;;1.70;;
3601;SDS011;1815;50.950;6.920;2023-08-24T10:39:43;3.30;;;1.80;;
3601;SDS011;1815;50.950;6.920;2023-08-24T10:42:13;3.93;;;1.77;;
3601;SDS011;1815;50.950;6.920;2023-08-24T10:44:39;3.30;;;1.70;;
3601;SDS011;1815;50.950;6.920;2023-08-24T10:49:43;3.60;;;1.40;;
3601;SDS011;1815;50.950;6.920;2023-08-24T10:52:22;3.10;;;1.40;;
3601;SDS011;1815;50.950;6.920;2023-08-24T10:54:49;2.73;;;1.50;;
3601;SDS011;1815;50.950;6.920;2023-08-24T10:59:58;2.20;;;1.17;;
3601;SDS011;1815;50.950;6.920;2023-08-24T11:02:25;5.07;;;2.43;;
3601;SDS011;1815;50.950;6.920;2023-08-24T11:05:04;4.97;;;2.80;;
3601;SDS011;1815;50.950;6.920;2023-08-24T11:07:31;3.63;;;1.20;;
3601;SDS011;1815;50.950;6.920;2023-08-24T11:09:57;3.57;;;1.50;;
3601;SDS011;1815;50.950;6.920;2023-08-24T11:12:23;6.83;;;1.60;;
3601;SDS011;1815;50.950;6.920;2023-08-24T11:14:49;4.07;;;1.27;;
3601;SDS011;1815;50.950;6.920;2023-08-24T11:17:20;3.27;;;1.67;;
3601;SDS011;1815;50.950;6.920;2023-08-24T11:19:48;4.87;;;1.70;;
3601;SDS011;1815;50.950;6.920;2023-08-24T11:22:15;3.90;;;1.80;;
3601;SDS011;1815;50.950;6.920;2023-08-24T11:24:46;3.90;;;1.80;;
3601;SDS011;1815;50.950;6.920;2023-08-24T11:27:12;3.20;;;1.50;;
3601;SDS011;1815;50.950;6.920;2023-08-24T11:29:37;3.70;;;1.50;;
3601;SDS011;1815;50.950;6.920;2023-08-24T11:32:03;3.57;;;1.57;;
3601;SDS011;1815;50.950;6.920;2023-08-24T11:34:29;3.33;;;1.53;;
3601;SDS011;1815;50.950;6.920;2023-08-24T11:36:55;3.70;;;1.80;;
3601;SDS011;1815;50.950;6.920;2023-08-24T11:39:22;2.80;;;1.63;;
3601;SDS011;1815;50.950;6.920;2023-08-24T11:41:56;5.93;;;1.43;;
3601;SDS011;1815;50.950;6.920;2023-08-24T11:44:29;3.50;;;1.50;;
3601;SDS011;1815;50.950;6.920;2023-08-24T11:47:09;6.07;;;1.50;;
3601;SDS011;1815;50.950;6.920;2023-08-24T11:49:35;4.37;;;1.77;;
3601;SDS011;1815;50.950;6.920;2023-08-24T11:52:01;2.27;;;1.30;;
3601;SDS011;1815;50.950;6.920;2023-08-24T11:54:27;5.30;;;1.73;;
3601;SDS011;1815;50.950;6.920;2023-08-24T11:56:53;3.53;;;2.33;;
3601;SDS011;1815;50.950;6.920;2023-08-24T11:59:18;4.70;;;1.63;;
3601;SDS011;1815;50.950;6.920;2023-08-24T12:01:45;3.83;;;1.40;;
3601;SDS011;1815;50.950;6.920;2023-08-24T12:04:11;3.77;;;1.53;;
3601;SDS011;1815;50.950;6.920;2023-08-24T12:06:37;3.90;;;1.30;;
3601;SDS011;1815;50.950;6.920;2023-08-24T12:09:05;4.50;;;1.50;;
3601;SDS011;1815;50.950;6.920;2023-08-24T12:11:34;2.97;;;1.50;;
3601;SDS011;1815;50.950;6.920;2023-08-24T12:14:01;3.30;;;1.23;;
3601;SDS011;1815;50.950;6.920;2023-08-24T12:16:27;2.10;;;1.10;;
3601;SDS011;1815;50.950;6.920;2023-08-24T12:18:58;2.80;;;0.90;;
3601;SDS011;1815;50.950;6.920;2023-08-24T12:21:26;2.20;;;1.23;;
3601;SDS011;1815;50.950;6.920;2023-08-24T12:23:56;3.50;;;1.50;;
3601;SDS011;1815;50.950;6.920;2023-08-24T12:26:31;6.83;;;1.50;;
3601;SDS011;1815;50.950;6.920;2023-08-24T12:29:04;3.10;;;1.80;;
3601;SDS011;1815;50.950;6.920;2023-08-24T12:31:32;3.27;;;1.30;;
3601;SDS011;1815;50.950;6.920;2023-08-24T12:33:59;3.30;;;1.57;;
3601;SDS011;1815;50.950;6.920;2023-08-24T12:36:26;3.30;;;1.80;;
3601;SDS011;1815;50.950;6.920;2023-08-24T12:38:52;4.27;;;1.93;;
3601;SDS011;1815;50.950;6.920;2023-08-24T12:41:18;3.07;;;1.53;;
3601;SDS011;1815;50.950;6.920;2023-08-24T12:43:45;3.13;;;1.70;;
3601;SDS011;1815;50.950;6.920;2023-08-24T12:46:11;4.17;;;1.43;;
3601;SDS011;1815;50.950;6.920;2023-08-24T12:48:37;2.50;;;1.27;;
3601;SDS011;1815;50.950;6.920;2023-08-24T12:51:02;2.93;;;1.83;;
3601;SDS011;1815;50.950;6.920;2023-08-24T12:53:28;3.90;;;1.70;;
3601;SDS011;1815;50.950;6.920;2023-08-24T12:55:54;4.70;;;2.03;;
3601;SDS011;1815;50.950;6.920;2023-08-24T12:58:19;4.70;;;1.60;;
3601;SDS011;1815;50.950;6.920;2023-08-24T13:00:45;2.90;;;1.67;;
3601;SDS011;1815;50.950;6.920;2023-08-24T13:03:12;4.40;;;1.90;;
3601;SDS011;1815;50.950;6.920;2023-08-24T13:05:37;4.73;;;2.10;;
3601;SDS011;1815;50.950;6.920;2023-08-24T13:08:03;8.70;;;2.30;;
3601;SDS011;1815;50.950;6.920;2023-08-24T13:10:29;5.67;;;1.87;;
3601;SDS011;1815;50.950;6.920;2023-08-24T13:12:55;6.90;;;2.67;;
3601;SDS011;1815;50.950;6.920;2023-08-24T13:15:22;3.70;;;1.93;;
3601;SDS011;1815;50.950;6.920;2023-08-24T13:17:47;3.30;;;1.80;;
3601;SDS011;1815;50.950;6.920;2023-08-24T13:20:13;5.50;;;1.90;;
3601;SDS011;1815;50.950;6.920;2023-08-24T13:22:39;4.57;;;2.27;;
3601;SDS011;1815;50.950;6.920;2023-08-24T13:25:05;4.27;;;2.43;;
3601;SDS011;1815;50.950;6.920;2023-08-24T13:27:32;9.03;;;2.33;;
3601;SDS011;1815;50.950;6.920;2023-08-24T13:30:00;4.80;;;2.10;;
3601;SDS011;1815;50.950;6.920;2023-08-24T13:32:26;3.60;;;1.73;;
3601;SDS011;1815;50.950;6.920;2023-08-24T13:34:53;3.17;;;1.60;;
3601;SDS011;1815;50.950;6.920;2023-08-24T13:37:18;3.27;;;1.47;;
3601;SDS011;1815;50.950;6.920;2023-08-24T13:39:44;3.70;;;1.67;;
3601;SDS011;1815;50.950;6.920;2023-08-24T13:42:10;3.93;;;1.93;;
3601;SDS011;1815;50.950;6.920;2023-08-24T13:44:36;3.70;;;1.70;;
3601;SDS011;1815;50.950;6.920;2023-08-24T13:47:01;4.60;;;1.73;;
3601;SDS011;1815;50.950;6.920;2023-08-24T13:49:27;2.40;;;1.70;;
3601;SDS011;1815;50.950;6.920;2023-08-24T13:51:53;2.70;;;1.53;;
3601;SDS011;1815;50.950;6.920;2023-08-24T13:54:19;3.07;;;1.50;;
3601;SDS011;1815;50.950;6.920;2023-08-24T13:56:46;3.60;;;1.60;;
3601;SDS011;1815;50.950;6.920;2023-08-24T13:59:13;4.00;;;1.90;;
3601;SDS011;1815;50.950;6.920;2023-08-24T14:01:39;3.07;;;1.27;;
3601;SDS011;1815;50.950;6.920;2023-08-24T14:04:05;2.93;;;1.50;;
3601;SDS011;1815;50.950;6.920;2023-08-24T14:06:32;4.67;;;2.43;;
3601;SDS011;1815;50.950;6.920;2023-08-24T14:09:00;6.90;;;2.97;;
3601;SDS011;1815;50.950;6.920;2023-08-24T14:11:25;4.97;;;2.67;;
3601;SDS011;1815;50.950;6.920;2023-08-24T14:13:52;5.50;;;2.23;;
3601;SDS011;1815;50.950;6.920;2023-08-24T14:16:18;6.00;;;2.13;;
3601;SDS011;1815;50.950;6.920;2023-08-24T14:18:47;8.03;;;4.30;;
3601;SDS011;1815;50.950;6.920;2023-08-24T14:21:13;8.83;;;5.53;;
3601;SDS011;1815;50.950;6.920;2023-08-24T14:23:40;6.83;;;3.57;;
3601;SDS011;1815;50.950;6.920;2023-08-24T14:26:06;4.07;;;2.10;;
3601;SDS011;1815;50.950;6.920;2023-08-24T14:28:51;3.03;;;1.60;;
3601;SDS011;1815;50.950;6.920;2023-08-24T14:31:22;3.97;;;1.47;;
3601;SDS011;1815;50.950;6.920;2023-08-24T14:33:52;3.63;;;1.30;;
3601;SDS011;1815;50.950;6.920;2023-08-24T14:36:18;3.60;;;1.40;;
3601;SDS011;1815;50.950;6.920;2023-08-24T14:38:47;2.80;;;1.63;;
3601;SDS011;1815;50.950;6.920;2023-08-24T14:41:14;2.33;;;1.20;;
3601;SDS011;1815;50.950;6.920;2023-08-24T14:43:40;4.30;;;1.67;;
3601;SDS011;1815;50.950;6.920;2023-08-24T14:46:07;2.30;;;1.17;;
3601;SDS011;1815;50.950;6.920;2023-08-24T14:48:33;4.50;;;1.20;;
3601;SDS011;1815;50.950;6.920;2023-08-24T14:50:59;5.30;;;1.43;;
3601;SDS011;1815;50.950;6.920;2023-08-24T14:53:26;4.70;;;1.30;;
3601;SDS011;1815;50.950;6.920;2023-08-24T14:55:53;3.27;;;1.20;;
3601;SDS011;1815;50.950;6.920;2023-08-24T14:58:23;2.80;;;1.27;;
3601;SDS011;1815;50.950;6.920;2023-08-24T15:00:50;4.40;;;1.30;;
3601;SDS011;1815;50.950;6.920;2023-08-24T15:03:18;2.90;;;1.10;;
3601;SDS011;1815;50.950;6.920;2023-08-24T15:05:45;2.07;;;1.07;;
3601;SDS011;1815;50.950;6.920;2023-08-24T15:08:20;2.53;;;1.20;;
3601;SDS011;1815;50.950;6.920;2023-08-24T15:10:46;4.60;;;1.00;;
3601;SDS011;1815;50.950;6.920;2023-08-24T15:13:13;3.60;;;1.30;;
3601;SDS011;1815;50.950;6.920;2023-08-24T15:15:39;3.73;;;1.27;;
3601;SDS011;1815;50.950;6.920;2023-08-24T15:18:05;4.10;;;1.90;;
3601;SDS011;1815;50.950;6.920;2023-08-24T15:20:31;7.57;;;2.17;;
3601;SDS011;1815;50.950;6.920;2023-08-24T15:22:58;3.80;;;1.37;;
3601;SDS011;1815;50.950;6.920;2023-08-24T15:25:24;3.80;;;0.90;;
3601;SDS011;1815;50.950;6.920;2023-08-24T15:27:50;4.70;;;1.20;;